Terminal Aerodrome Forecast
Issued by NWS

Home | Current Version | Previous Version | Text Only | Print | Product List | Glossary On
Versions: 1 2 3 4 5 6 7 8 9 10 11 12
204
FTUS45 KRIW 040541
TAFWRL
TAF
KWRL 040541Z 0406/0506 15006KT P6SM SCT100 BKN250
     FM041300 15010KT P6SM BKN100 OVC150=

USA.gov is the U.S. government's official web portal to all federal, state and local government web resources and services.